Airfield :
LOGIN :

Register | Disclaimer

   EN    FR    IT 

 










Legend :    VFR   Marginal VFR   IFR   Intensive IFR   Very Intensive IFR
Visi :
Ceiling :
>= 8 km
>= 3000ft
5 to 8 km
1000 to 3000 ft
1500m to 5 km
500 to 1000 ft
800 to 1500m
200 to 500 ft
< 800m
< 200 ft
Symbols :   Thunderstorms  Fog  Heavy snow  Heavy precipitations  Wind > 20 kt
SIGMETs :     Misc.  Thunderstorms  Icing  Turbulence  Mountain Waves  Volcanic Ashes






- Airport Elevation : 1260 ft
- IATA code : LDE


LFBT - Tarbes / Ossun

CURRENT METAR :
  • 162200Z AUTO 24005KT 200V270 9999 -TSRA SCT010/// BKN019/// BKN026/// ///CB 18/16 Q1013 BECMG NSW BKN030

EXPIRED METARs :
  • 162130Z AUTO 27012KT 9999 -RA VCTS SCT008/// SCT015/// BKN035/// //////CB 18/16 Q1012 BECMG NSW BKN030
  • 162100Z AUTO 26011KT 220V290 7000 -RA VCTS FEW013/// SCT021/// BKN029/// ///CB 19/17 Q1012 TEMPO VRB20G30KT BKN010 BECMG NSW
  • 162030Z AUTO 22008KT 180V270 7000 -RA FEW020/// SCT028/// OVC041/// //////CB 20/17 Q1011 TEMPO VRB20G30KT TSRA BKN010
  • 162000Z AUTO 25005KT 220V280 9999 FEW030/// OVC041/// ///CB 21/17 Q1011 TEMPO VRB20G30KT 2000 TSRAGR BKN010
  • 161930Z AUTO 27004KT 240V300 9999 FEW027/// SCT034/// OVC041/// //////CB 22/17 Q1010 TEMPO VRB20G30KT 2000 TSRAGR BKN010

TAF TAF LFBT
Valid from the 16 at 18:00 until the 17 at 18:00 UTC


161700Z 1618/1718 27006KT 9999 SCT040 FEW065CB BKN120
TEMPO 1618/1622 32015G25KT TSRA
PROB40
TEMPO 1619/1622 VRB20G30KT
PROB30
TEMPO 1619/1621 VRB25G35KT 2000 TSRAGR BKN013 BKN030CB
PROB40 1621/1623 BKN010
BECMG 1623/1701 BKN030
BECMG 1710/1712 SCT030TCU SCT050
TEMPO 1714/1718 BKN030 FEW050CB



MET'MAP, your aeronautical weather chart ! - Copyright ORBIFLY December 2007 - Disclaimer

ORBIFLY MET'MAP TEAM :

Programming & Development : Alexandra Zaïnal
Original concept : Baudouin d'Aumeries
Technical & hardware support : Manuel Goepfert
Assistance : Marc-Olivier Méhu




SOURCES & CREDITS :

   NOAA